Tilapäinen rajoitusalue EFR1085 rajoittaa lentämistä Malmilla

PPR-pyyntö

Ennakkolupa on pakollinen lentoonlähtöjä ja laskuja varten. Pyydä ennakkolupa tästä.

Laskukierrosvaraus

Tee ensin PPR-pyyntö, sitten vasta laskukierrosvaraus. Hinta 5 € / 15 min.

Aerodrome Info

Updated 17 OCT 2017 21:02 LT

  • Some asphalt damage south of RWY 36 threshold
  • Large water puddles on TWYs and APR.
  • Caution: Reporting point NOKKA is closed due to temporary restricted area EFR1085 16.10. 12 am. - 19.10 12 am local time. All traffic to/from west have to fly via northern route.
  • Huom. Tilapäisen rajoitusalueen EFR1085 vuoksi NOKKA on suljettu 16.10. klo 12 - 19.10. klo 12 paikallista aikaa. Liikenne länteen tapahtuu pohjoisen reitin kautta.

Contact duty officer at +358 20 7545 129 for more information.

Weather


Helsinki Malmi lentokenttä
AWS ILHF 180320Z AUTO 26007KT 6000 -RA OVC010 11/10 Q0997=

METAR EFHK 180320Z 26012KT 9999 -RA SCT009 BKN013 BKN039 10/09 Q0996 TEMPO BKN009=
TAF EFHK 180236Z 1803/1903 24010KT 9999 -RA FEW005 BKN015 TEMPO 1803/1807 4000 BKN005 BECMG 1804/1806 33012KT=

Helsinki-Malmin lentoasema

Tervetuloa Helsinki-Malmin lentokentälle

Malmin lentokenttäyhdistys ry on yleishyödyllinen yhdistys, joka toimii Suomen vilkkaimman yleisilmailukentän, Helsinki-Malmin operaattorina. Yhdistyksen toiminnassa ovat mukana kentällä toimivat yhteisöt sekä suuri joukko yleisilmailijoita.

Malmin lentokentän toiminta rahoitetaan jäsen- ja kausikorttimaksuin. Ole mukana jatkamassa Malmin lentotoimintaa ja liity jäseneksi!